TLPC/SLU METAR and TAF weather

Enter ICAO airport designator
Station Type Date Time Source
TLPC METAR 2021/04/13 22:00 UTC NOAA

TLPC 132200Z 15003KT 9999 FEW022 28/24 Q1011 NOSIG


Station Type Date Time Source
TLPC Decoded METAR 2021/04/13 22:00 UTC NOAA

Vigie, Saint Lucia (TLPC) 14-01N 061-00W 2M
Apr 13, 2021 - 06:00 PM EDT / 2021.04.13 2200 UTC
Wind: from the SSE (150 degrees) at 3 MPH (3 KT):0
Visibility: greater than 7 mile(s):0
Sky conditions: mostly clear
Temperature: 82 F (28 C)
Dew Point: 75 F (24 C)
Relative Humidity: 78%
Pressure (altimeter): 29.85 in. Hg (1011 hPa)
ob: TLPC 132200Z 15003KT 9999 FEW022 28/24 Q1011 NOSIG
cycle: 22

Station Type Date Time Source
TLPC TAF 2021/04/13 18:24 UTC NOAA

TAF TAF TLPC 131715Z 1318/1418 12008KT 9999 SCT025 PROB 40
TEMPO 1322/1406 5000 SHRA FEW015CB BKN020

Example: see airport list